INFORMACIÓN METAR y TAF
METAR FOR LGSK
ADDS - METARS form results

(0240 UTC 16 December 2019)
Data provider http://aviationweather.gov/metar/data/
 
Forecast for: LGSK (SKIATHOS ISLAND , GR)
Text: TAF LGSK 160200Z 1603/1612 19005KT 9999 FEW035
Forecast period: 0300 to 1200 UTC 16 December 2019
Forecast type: FROM: standard forecast or significant change
Winds: from the S (190 degrees) at 6 MPH (5 knots; 2.6 m/s)
Visibility: 6 or more miles 10+ km)
Ceiling: at least 12,000 feet AGL
Clouds: few clouds at 3500 feet AGL
Weather: no significant weather forecast for this period
Text: PROB30 1603/1608 5000 BR SCT008
Forecast period: 0300 to 0800 UTC 16 December 2019
Forecast type: PROBABLE: 30 percent likelihood of the following during this time
Visibility: 3 miles (5 km)
Ceiling: at least 12,000 feet AGL
Clouds: scattered clouds at 800 feet AGL
Weather: BR  (mist)

MAPA DE AEROPUERTO

INFORMACIÓN DE PISTA
Pista 02 Longitud 5341 ft Ancho 98 ft
Elevación 9 ft Umbral desplazado 190 ft Rumbo de pista 19
Pista 20 Longitud 5341 ft Ancho 98 ft
Elevación 54 ft Umbral desplazado 0 ft Rumbo de pista 199

FRECUANCIAS DEL AEROPUERTO
Tipo A/G Nombre SKIATHOS R Frecuencia 563.7 MHZ
Tipo APP Nombre SKIATHOS A Frecuencia 126.05 MHZ
Tipo TWR Nombre SKIATHOS T Frecuencia 126.05 MHZ

RADIO AYUDAS DEL AEROPUERTO
Tipo NDB Nombre Skiathos Frecuencia 326 KHZ